716  
SXUS55 KTFX 172308  
OSOTFX  
 
AREA AWOS OBSERVATIONS  
NATIONAL WEATHER SERVICE GREAT FALLS MT  
0408 PM MST MON FEB 17 2020  
 
METAR K9S2 172255Z AUTO 31005KT 255SM M06/M13 A3005 RMK A01 T10611127  
METAR K9S5 172255Z AUTO 40SM M01/M07 A3005 RMK A01 T10111066  
METAR KRPX 172255Z AUTO 04006KT 40SM 02/M08 A2993 RMK A01 T00221077  
METAR KS34 172255Z AUTO 22007KT 40SM 04/M07 A3014 RMK A01 T00441066  
METAR KTHM 172255Z AUTO 27010KT 40SM 03/M04 A3021 RMK A01 T00271038  
 
CLICK HERE TO GO TO PREVIOUS BULLETINS.

The Nexlab MT Page Main Text Page